Aeroporto :
LOGIN :

Iscrizione | Disclaimer

   EN    FR    IT 

 










Sommario :    VFR   VFR Marginale   IFR   IFR Intensivo   IFR Molto Intensivo
Visibilità : 
Base nubi : 
>= 8 km
>= 3000ft
5 / 8 km
1000 / 3000 ft
1500m / 5 km
500 / 1000 ft
800 / 1500m
200 / 500 ft
< 800m
< 200 ft
Simboli :   Temporali  Nebbia  Neve Forte  Precipitazioni Forti  Vento > 20 kt
SIGMETs :   Varie  Temporali  Ghiacco  Turbolenza  Onda orograficha  Ceneri Vulcaniche






- Altitudine del aeroporto : 231 ft
- Codice IATA : N/A


EGSY - MOD Saint Athan

ULTIMO METAR :
  • 290520Z AUTO 36004KT 9999 FEW040/// 01/00 Q1006

METARs OBSOLETI :
  • 290450Z AUTO 01005KT 9000 FEW041/// SCT048/// 01/00 Q1006
  • 290420Z AUTO 36002KT 9999 NCD 01/00 Q1006
  • 290350Z AUTO 02002KT 9999 NCD 01/00 Q1006
  • 290320Z AUTO 35002KT 8000 NCD 01/00 Q1007
  • 290250Z AUTO 35005KT 7000 NCD 01/00 Q1007
  • 290220Z AUTO 35004KT 320V030 9999 NCD 02/01 Q1007
  • 290150Z AUTO 35003KT 9999 BKN049/// 03/02 Q1007
  • 290120Z AUTO 34003KT 320V030 9999 FEW023/// BKN047/// 03/02 Q1007
  • 290050Z AUTO 35004KT 9999 FEW023/// 03/02 Q1007

TAF TAF EGSY
Valido dal 29 a 03 ore il 29 a 12 ore UTC


290154Z 2903/2912 VRB03KT 9999 SCT025
PROB30 2903/2908 8000
BECMG 2906/2909 06010KT
PROB40
TEMPO 2907/2912 BKN008



MetMap, La meteo Aeronautica in un colpo d'occhio ! - Copyright ORBIFLY Dicembre 2007 - Disclaimer

ORBIFLY MET'MAP TEAM :

Programmazione e sviluppo : Alexandra Zaïnal
Concezione : Baudouin d'Aumeries
Supporto tecnico e logistico : Manuel Goepfert
Aiuto : Marc-Olivier Méhu
Aiuto per la traduzione : Arnaldo La Scala




FONTI E CREDITI :

   NOAA